createdAt,value
2023-02-16T00:01:25.241Z,99.90
2023-02-16T00:03:54.727Z,99.90
2023-02-16T00:06:22.847Z,99.90
2023-02-16T00:08:52.504Z,99.90
2023-02-16T00:11:41.973Z,99.90
2023-02-16T00:14:11.953Z,99.90
2023-02-16T00:16:41.856Z,99.90
2023-02-16T00:19:21.729Z,99.90
2023-02-16T00:21:50.594Z,99.90
2023-02-16T00:24:18.743Z,99.90
2023-02-16T00:26:47.368Z,99.90
2023-02-16T00:29:20.844Z,99.90
2023-02-16T00:31:50.626Z,99.90
2023-02-16T00:34:27.278Z,99.90
2023-02-16T00:36:56.102Z,99.90
2023-02-16T00:39:25.924Z,99.90
2023-02-16T00:41:55.546Z,99.90
2023-02-16T00:44:30.664Z,99.90
2023-02-16T00:47:02.259Z,99.90
2023-02-16T00:49:31.423Z,99.90
2023-02-16T00:51:59.650Z,99.90
2023-02-16T00:54:27.557Z,99.90
2023-02-16T00:56:55.500Z,99.90
2023-02-16T00:59:24.192Z,99.90
2023-02-16T01:01:52.187Z,99.90
2023-02-16T01:04:24.450Z,99.90
2023-02-16T01:07:09.753Z,99.90
2023-02-16T01:09:55.011Z,99.90
2023-02-16T01:12:23.545Z,99.90
2023-02-16T01:14:54.208Z,99.90
2023-02-16T01:17:25.190Z,99.90
2023-02-16T01:19:56.242Z,99.90
2023-02-16T01:22:24.307Z,99.90
2023-02-16T01:24:52.183Z,99.90
2023-02-16T01:27:20.145Z,99.90
2023-02-16T01:29:47.999Z,99.90
2023-02-16T01:32:17.146Z,99.90
2023-02-16T01:34:45.483Z,99.90
2023-02-16T01:37:17.499Z,99.90
2023-02-16T01:39:45.589Z,99.90
2023-02-16T01:42:27.089Z,99.90
2023-02-16T01:44:59.898Z,99.90
2023-02-16T01:47:37.805Z,99.90
2023-02-16T01:50:16.719Z,99.90
2023-02-16T01:52:51.519Z,99.90
2023-02-16T01:55:25.097Z,99.90
2023-02-16T01:57:59.203Z,99.90
2023-02-16T02:00:30.187Z,99.90
2023-02-16T02:03:20.787Z,99.90
2023-02-16T02:05:48.191Z,99.90
2023-02-16T02:08:25.306Z,99.90
2023-02-16T02:11:04.464Z,99.90
2023-02-16T02:13:40.958Z,99.90
2023-02-16T02:16:09.744Z,99.90
2023-02-16T02:18:39.209Z,99.90
2023-02-16T02:21:42.419Z,99.90
2023-02-16T02:24:36.796Z,99.90
2023-02-16T02:27:16.319Z,99.90
2023-02-16T02:30:23.715Z,99.90
2023-02-16T02:33:07.601Z,99.90
2023-02-16T02:35:44.969Z,99.90
2023-02-16T02:38:17.840Z,99.90
2023-02-16T02:41:00.272Z,99.90
2023-02-16T02:43:36.985Z,99.90
2023-02-16T02:46:11.137Z,99.90
2023-02-16T02:48:39.008Z,99.90
2023-02-16T02:51:30.850Z,99.90
2023-02-16T02:54:23.437Z,99.90
2023-02-16T02:57:16.266Z,99.90
2023-02-16T03:00:06.346Z,99.90
2023-02-16T03:02:36.330Z,99.90
2023-02-16T03:05:06.883Z,99.90
2023-02-16T03:07:49.129Z,99.90
2023-02-16T03:10:38.193Z,99.90
2023-02-16T03:13:09.035Z,99.90
2023-02-16T03:15:40.047Z,99.90
2023-02-16T03:18:27.890Z,99.90
2023-02-16T03:21:15.183Z,99.90
2023-02-16T03:24:02.882Z,99.90
2023-02-16T03:26:49.042Z,99.90
2023-02-16T03:29:19.357Z,99.90
2023-02-16T03:31:49.349Z,99.90
2023-02-16T03:34:18.876Z,99.90
2023-02-16T03:36:49.548Z,99.90
2023-02-16T03:39:18.033Z,99.90
2023-02-16T03:41:50.073Z,99.90
2023-02-16T03:44:18.909Z,99.90
2023-02-16T03:46:49.523Z,99.90
2023-02-16T03:49:17.529Z,99.90
2023-02-16T03:51:45.494Z,99.90
2023-02-16T03:54:14.109Z,99.90
2023-02-16T03:56:41.989Z,99.90
2023-02-16T03:59:09.835Z,99.90
2023-02-16T04:01:37.674Z,99.90
2023-02-16T04:04:07.064Z,99.90
2023-02-16T04:06:34.944Z,99.90
2023-02-16T04:09:02.810Z,99.90
2023-02-16T04:11:48.209Z,99.90
2023-02-16T04:14:16.131Z,99.90
2023-02-16T04:16:44.149Z,99.90
2023-02-16T04:19:14.499Z,99.90
2023-02-16T04:21:42.940Z,99.90
2023-02-16T04:24:10.867Z,99.90
2023-02-16T04:26:38.757Z,99.90
2023-02-16T04:29:06.640Z,99.90
2023-02-16T04:31:34.591Z,99.90
2023-02-16T04:34:02.573Z,99.90
2023-02-16T04:36:31.893Z,99.90
2023-02-16T04:38:59.766Z,99.90
2023-02-16T04:41:27.677Z,99.90
2023-02-16T04:43:55.749Z,99.90
2023-02-16T04:46:23.953Z,99.90
2023-02-16T04:48:51.867Z,99.90
2023-02-16T04:51:19.759Z,99.90
2023-02-16T04:53:49.092Z,99.90
2023-02-16T04:56:17.557Z,99.90
2023-02-16T04:58:45.484Z,99.90
2023-02-16T05:01:20.675Z,99.90
2023-02-16T05:03:48.886Z,99.90
2023-02-16T05:06:17.316Z,99.90
2023-02-16T05:08:46.085Z,99.90
2023-02-16T05:11:33.088Z,99.90
2023-02-16T05:14:18.892Z,99.90
2023-02-16T05:16:47.358Z,99.90
2023-02-16T05:19:15.329Z,99.90
2023-02-16T05:21:43.244Z,99.90
2023-02-16T05:24:12.353Z,99.90
2023-02-16T05:26:41.515Z,99.90
2023-02-16T05:29:09.480Z,99.90
2023-02-16T05:31:37.505Z,99.90
2023-02-16T05:34:05.526Z,99.90
2023-02-16T05:36:33.470Z,99.90
2023-02-16T05:39:01.541Z,99.90
2023-02-16T05:41:29.520Z,99.90
2023-02-16T05:44:00.681Z,99.90
2023-02-16T05:46:31.949Z,99.90
2023-02-16T05:49:00.092Z,99.90
2023-02-16T05:51:28.265Z,99.90
2023-02-16T05:53:56.481Z,99.90
2023-02-16T05:56:24.809Z,99.90
2023-02-16T05:58:53.797Z,99.90
2023-02-16T06:01:23.311Z,99.90
2023-02-16T06:03:51.229Z,99.90
2023-02-16T06:06:19.618Z,99.90
2023-02-16T06:08:47.508Z,99.90
2023-02-16T06:11:29.343Z,99.90
2023-02-16T06:13:58.194Z,99.90
2023-02-16T06:16:29.335Z,99.90
2023-02-16T06:18:57.484Z,99.90
2023-02-16T06:21:27.956Z,99.90
2023-02-16T06:23:56.259Z,99.90
2023-02-16T06:26:24.346Z,99.90
2023-02-16T06:28:52.385Z,99.90
2023-02-16T06:31:20.546Z,99.90
2023-02-16T06:33:49.826Z,99.90
2023-02-16T06:36:18.001Z,99.90
2023-02-16T06:38:46.435Z,99.90
2023-02-16T06:41:31.071Z,99.90
2023-02-16T06:44:00.341Z,99.90
2023-02-16T06:46:28.716Z,99.90
2023-02-16T06:48:58.316Z,99.90
2023-02-16T06:51:26.929Z,99.90
2023-02-16T06:53:54.928Z,99.90
2023-02-16T06:56:23.512Z,99.90
2023-02-16T06:58:51.951Z,99.90
2023-02-16T07:01:23.190Z,99.90
2023-02-16T07:03:51.733Z,99.90
2023-02-16T07:06:21.524Z,99.90
2023-02-16T07:08:49.488Z,99.90
2023-02-16T07:11:18.262Z,99.90
2023-02-16T07:13:46.612Z,99.90
2023-02-16T07:16:15.444Z,99.90
2023-02-16T07:18:43.397Z,99.90
2023-02-16T07:21:11.514Z,99.90
2023-02-16T07:23:40.946Z,99.90
2023-02-16T07:26:08.918Z,99.90
2023-02-16T07:28:36.926Z,99.90
2023-02-16T07:31:09.738Z,99.90
2023-02-16T07:33:38.722Z,99.90
2023-02-16T07:36:08.007Z,99.90
2023-02-16T07:38:36.045Z,99.90
2023-02-16T07:41:08.969Z,99.90
2023-02-16T07:43:37.773Z,99.90
2023-02-16T07:46:06.507Z,99.90
2023-02-16T07:48:34.453Z,99.90
2023-02-16T07:51:03.086Z,99.90
2023-02-16T07:53:31.155Z,99.90
2023-02-16T07:55:59.035Z,99.90
2023-02-16T07:58:28.806Z,99.90
2023-02-16T08:00:57.682Z,99.90
2023-02-16T08:03:25.776Z,99.90
2023-02-16T08:05:54.187Z,99.90
2023-02-16T08:08:22.016Z,99.90
2023-02-16T08:10:49.924Z,99.90
2023-02-16T08:13:17.832Z,99.90
2023-02-16T08:15:47.029Z,99.90
2023-02-16T08:18:15.226Z,99.90
2023-02-16T08:21:01.501Z,99.90
2023-02-16T08:23:31.487Z,99.90
2023-02-16T08:25:59.875Z,99.90
2023-02-16T08:28:28.871Z,99.90
2023-02-16T08:30:58.318Z,99.90
2023-02-16T08:33:26.352Z,99.90
2023-02-16T08:35:54.275Z,99.90
2023-02-16T08:38:22.749Z,99.90
2023-02-16T08:40:51.406Z,99.90
2023-02-16T08:43:19.390Z,99.90
2023-02-16T08:45:48.471Z,99.90
2023-02-16T08:48:17.933Z,99.90
2023-02-16T08:50:53.319Z,99.90
2023-02-16T08:53:23.071Z,99.90
2023-02-16T08:55:55.753Z,99.90
2023-02-16T08:58:24.655Z,99.90
2023-02-16T09:00:52.704Z,99.90
2023-02-16T09:03:22.087Z,99.90
2023-02-16T09:05:51.284Z,99.90
2023-02-16T09:08:19.502Z,99.90
2023-02-16T09:10:47.370Z,99.90
2023-02-16T09:13:16.273Z,99.90
2023-02-16T09:15:45.019Z,99.90
2023-02-16T09:18:14.146Z,99.90
2023-02-16T09:20:46.926Z,99.90
2023-02-16T09:23:15.092Z,99.90
2023-02-16T09:25:43.072Z,99.90
2023-02-16T09:28:11.713Z,99.90
2023-02-16T09:30:40.470Z,99.90
2023-02-16T09:33:08.392Z,99.90
2023-02-16T09:35:39.054Z,99.90
2023-02-16T09:38:08.754Z,99.90
2023-02-16T09:40:38.388Z,99.90
2023-02-16T09:43:09.798Z,99.90
2023-02-16T09:45:43.917Z,99.90
2023-02-16T09:48:21.914Z,99.90
2023-02-16T09:50:54.961Z,99.90
2023-02-16T09:53:39.443Z,99.90
2023-02-16T09:56:16.821Z,99.90
2023-02-16T09:58:48.920Z,99.90
2023-02-16T10:01:25.503Z,99.90
2023-02-16T10:04:01.299Z,99.90
2023-02-16T10:06:37.142Z,99.90
2023-02-16T10:09:11.416Z,99.90
2023-02-16T10:11:46.665Z,99.90
2023-02-16T10:14:19.594Z,99.90
2023-02-16T10:16:53.278Z,99.90
2023-02-16T10:19:24.806Z,99.90
2023-02-16T10:21:56.564Z,99.90
2023-02-16T10:24:27.250Z,99.90
2023-02-16T10:27:03.295Z,99.90
2023-02-16T10:29:31.196Z,99.90
2023-02-16T10:32:13.487Z,99.60
2023-02-16T10:34:51.737Z,98.90
2023-02-16T10:37:30.493Z,98.00
2023-02-16T10:40:13.985Z,96.00
2023-02-16T10:42:46.030Z,95.10
2023-02-16T10:45:26.258Z,94.80
2023-02-16T10:47:55.572Z,94.40
2023-02-16T10:50:27.561Z,93.80
2023-02-16T10:52:59.854Z,93.10
2023-02-16T10:55:29.696Z,92.00
2023-02-16T10:58:01.377Z,91.20
2023-02-16T11:00:46.414Z,87.60
2023-02-16T11:03:15.567Z,85.70
2023-02-16T11:05:43.536Z,86.20
2023-02-16T11:08:13.708Z,86.50
2023-02-16T11:10:48.747Z,85.80
2023-02-16T11:13:26.861Z,85.10
2023-02-16T11:15:57.136Z,84.00
2023-02-16T11:18:34.553Z,83.00
2023-02-16T11:21:03.262Z,82.20
2023-02-16T11:23:32.936Z,81.20
2023-02-16T11:26:05.654Z,80.60
2023-02-16T11:28:35.923Z,79.00
2023-02-16T11:31:15.019Z,77.00
2023-02-16T11:33:54.686Z,75.50
2023-02-16T11:36:29.558Z,75.00
2023-02-16T11:39:00.329Z,74.10
2023-02-16T11:41:30.414Z,71.40
2023-02-16T11:43:59.285Z,70.50
2023-02-16T11:46:27.578Z,68.90
2023-02-16T11:48:56.108Z,68.60
2023-02-16T11:51:33.751Z,66.20
2023-02-16T11:54:05.246Z,65.60
2023-02-16T11:56:35.491Z,64.90
2023-02-16T11:59:13.964Z,64.80
2023-02-16T12:01:56.778Z,63.90
2023-02-16T12:04:39.793Z,62.80
2023-02-16T12:07:16.450Z,62.20
2023-02-16T12:09:52.710Z,61.90
2023-02-16T12:12:32.385Z,61.40
2023-02-16T12:15:07.702Z,61.00
2023-02-16T12:17:45.621Z,60.60
2023-02-16T12:20:32.804Z,60.50
2023-02-16T12:23:09.276Z,60.10
2023-02-16T12:25:40.862Z,59.40
2023-02-16T12:28:21.250Z,59.10
2023-02-16T12:31:00.962Z,58.40
2023-02-16T12:33:38.417Z,58.60
2023-02-16T12:36:33.514Z,58.30
2023-02-16T12:39:13.583Z,57.90
2023-02-16T12:41:53.489Z,57.90
2023-02-16T12:44:32.909Z,57.90
2023-02-16T12:47:04.779Z,57.60
2023-02-16T12:49:42.013Z,58.40
2023-02-16T12:52:18.335Z,58.70
2023-02-16T12:54:51.321Z,59.40
2023-02-16T12:57:22.273Z,59.80
2023-02-16T12:59:59.553Z,59.70
2023-02-16T13:02:33.371Z,59.80
2023-02-16T13:05:08.700Z,59.30
2023-02-16T13:07:38.330Z,59.40
2023-02-16T13:10:15.862Z,60.00
2023-02-16T13:12:50.842Z,60.00
2023-02-16T13:15:24.468Z,60.00
2023-02-16T13:17:58.001Z,60.20
2023-02-16T13:20:26.502Z,60.70
2023-02-16T13:23:30.354Z,61.00
2023-02-16T13:26:18.063Z,61.30
2023-02-16T13:29:23.209Z,60.10
2023-02-16T13:32:06.052Z,60.30
2023-02-16T13:34:56.406Z,60.00
2023-02-16T13:37:42.987Z,59.40
2023-02-16T13:40:35.905Z,58.80
2023-02-16T13:43:14.406Z,59.10
2023-02-16T13:45:43.997Z,58.90
2023-02-16T13:48:23.763Z,59.30
2023-02-16T13:50:57.641Z,59.10
2023-02-16T13:53:25.774Z,58.90
2023-02-16T13:56:22.012Z,58.40
2023-02-16T13:58:49.895Z,57.40
2023-02-16T14:01:38.947Z,57.20
2023-02-16T14:04:13.858Z,56.50
2023-02-16T14:06:42.924Z,56.20
2023-02-16T14:09:48.665Z,55.70
2023-02-16T14:12:31.314Z,55.10
2023-02-16T14:15:04.731Z,54.80
2023-02-16T14:17:35.097Z,52.70
2023-02-16T14:20:09.038Z,49.40
2023-02-16T14:22:41.753Z,50.10
2023-02-16T14:25:33.065Z,50.70
2023-02-16T14:28:03.759Z,50.20
2023-02-16T14:30:35.943Z,49.90
2023-02-16T14:33:16.402Z,49.60
2023-02-16T14:35:48.063Z,48.90
2023-02-16T14:38:22.872Z,48.40
2023-02-16T14:40:55.334Z,47.50
2023-02-16T14:43:29.209Z,46.90
2023-02-16T14:46:29.146Z,46.60
2023-02-16T14:49:25.905Z,46.60
2023-02-16T14:52:23.135Z,46.40
2023-02-16T14:55:27.141Z,46.40
2023-02-16T14:58:03.180Z,47.00
2023-02-16T15:00:40.527Z,47.70
2023-02-16T15:03:18.053Z,48.30
2023-02-16T15:05:52.805Z,48.90
2023-02-16T15:08:24.371Z,49.60
2023-02-16T15:10:54.957Z,49.90
2023-02-16T15:13:25.521Z,50.20
2023-02-16T15:15:56.813Z,50.70
2023-02-16T15:18:29.283Z,51.20
2023-02-16T15:20:59.195Z,51.40
2023-02-16T15:23:30.280Z,51.60
2023-02-16T15:26:00.267Z,51.70
2023-02-16T15:28:30.817Z,52.00
2023-02-16T15:31:01.022Z,52.30
2023-02-16T15:33:36.369Z,52.90
2023-02-16T15:36:07.283Z,53.60
2023-02-16T15:38:39.081Z,54.00
2023-02-16T15:41:09.255Z,54.90
2023-02-16T15:43:40.010Z,55.60
2023-02-16T15:46:15.001Z,56.50
2023-02-16T15:48:43.037Z,58.40
2023-02-16T15:51:15.556Z,58.10
2023-02-16T15:53:50.411Z,58.80
2023-02-16T15:56:29.540Z,59.20
2023-02-16T15:59:00.894Z,59.70
2023-02-16T16:01:33.193Z,60.10
2023-02-16T16:04:04.307Z,60.90
2023-02-16T16:06:37.787Z,61.20
2023-02-16T16:09:10.887Z,61.80
2023-02-16T16:11:39.088Z,62.30
2023-02-16T16:14:07.862Z,62.60
2023-02-16T16:16:36.802Z,62.80
2023-02-16T16:19:15.059Z,64.00
2023-02-16T16:21:49.213Z,63.90
2023-02-16T16:24:34.107Z,64.30
2023-02-16T16:27:06.001Z,64.80
2023-02-16T16:29:37.251Z,65.00
2023-02-16T16:32:06.816Z,65.50
2023-02-16T16:34:38.637Z,65.40
2023-02-16T16:37:08.442Z,64.40
2023-02-16T16:39:40.513Z,63.90
2023-02-16T16:42:25.348Z,63.80
2023-02-16T16:45:00.006Z,63.90
2023-02-16T16:47:32.950Z,64.00
2023-02-16T16:50:03.938Z,64.20
2023-02-16T16:52:40.841Z,64.60
2023-02-16T16:55:29.799Z,65.20
2023-02-16T16:58:00.013Z,65.70
2023-02-16T17:00:30.790Z,66.00
2023-02-16T17:02:59.401Z,66.60
2023-02-16T17:05:27.214Z,67.20
2023-02-16T17:07:55.049Z,67.90
2023-02-16T17:10:23.595Z,68.60
2023-02-16T17:12:57.030Z,69.10
2023-02-16T17:15:36.300Z,70.60
2023-02-16T17:18:05.203Z,71.00
2023-02-16T17:20:33.193Z,71.70
2023-02-16T17:23:04.607Z,72.40
2023-02-16T17:25:34.350Z,73.30
2023-02-16T17:28:04.802Z,73.90
2023-02-16T17:30:33.106Z,74.70
2023-02-16T17:33:01.020Z,75.60
2023-02-16T17:35:29.342Z,76.60
2023-02-16T17:37:57.176Z,77.20
2023-02-16T17:40:26.060Z,77.90
2023-02-16T17:42:53.920Z,78.80
2023-02-16T17:45:23.516Z,79.60
2023-02-16T17:47:53.088Z,80.30
2023-02-16T17:50:21.983Z,81.00
2023-02-16T17:52:49.879Z,84.20
2023-02-16T17:55:17.913Z,85.90
2023-02-16T17:57:45.857Z,89.70
2023-02-16T18:00:19.091Z,91.70
2023-02-16T18:02:48.850Z,93.90
2023-02-16T18:05:17.335Z,96.40
2023-02-16T18:07:45.430Z,98.90
2023-02-16T18:10:19.899Z,99.90
2023-02-16T18:12:47.851Z,99.90
2023-02-16T18:15:15.952Z,99.90
2023-02-16T18:17:43.848Z,99.90
2023-02-16T18:20:16.367Z,99.90
2023-02-16T18:22:44.327Z,99.90
2023-02-16T18:25:12.360Z,99.90
2023-02-16T18:27:40.265Z,99.90
2023-02-16T18:30:09.954Z,99.90
2023-02-16T18:32:37.935Z,99.90
2023-02-16T18:35:07.183Z,99.90
2023-02-16T18:37:36.522Z,99.90
2023-02-16T18:40:06.405Z,99.90
2023-02-16T18:42:34.273Z,99.90
2023-02-16T18:45:02.344Z,99.90
2023-02-16T18:47:30.712Z,99.90
2023-02-16T18:49:58.515Z,99.90
2023-02-16T18:52:26.532Z,99.90
2023-02-16T18:54:55.737Z,99.90
2023-02-16T18:57:23.587Z,99.90
2023-02-16T18:59:51.515Z,99.90
2023-02-16T19:02:19.537Z,99.90
2023-02-16T19:04:47.850Z,99.90
2023-02-16T19:07:16.054Z,99.90
2023-02-16T19:09:43.972Z,99.90
2023-02-16T19:12:13.241Z,99.90
2023-02-16T19:14:41.146Z,99.90
2023-02-16T19:17:09.030Z,99.90
2023-02-16T19:19:37.077Z,99.90
2023-02-16T19:22:05.125Z,99.90
2023-02-16T19:24:34.890Z,99.90
2023-02-16T19:27:03.146Z,99.90
2023-02-16T19:29:32.412Z,99.90
2023-02-16T19:32:00.903Z,99.90
2023-02-16T19:34:28.915Z,99.90
2023-02-16T19:36:57.013Z,99.90
2023-02-16T19:39:25.523Z,99.90
2023-02-16T19:41:53.872Z,99.90
2023-02-16T19:44:21.693Z,99.90
2023-02-16T19:46:50.968Z,99.90
2023-02-16T19:49:19.814Z,99.90
2023-02-16T19:51:47.743Z,99.90
2023-02-16T19:54:15.829Z,99.90
2023-02-16T19:56:43.689Z,99.90
2023-02-16T19:59:11.531Z,99.90
2023-02-16T20:01:39.473Z,99.90
2023-02-16T20:04:08.798Z,99.90
2023-02-16T20:06:39.272Z,99.90
2023-02-16T20:09:07.410Z,99.90
2023-02-16T20:11:35.929Z,99.90
2023-02-16T20:14:03.781Z,99.90
2023-02-16T20:16:32.270Z,99.90
2023-02-16T20:19:00.546Z,99.90
2023-02-16T20:21:31.319Z,99.90
2023-02-16T20:24:01.651Z,99.90
2023-02-16T20:26:33.992Z,99.90
2023-02-16T20:29:02.326Z,99.90
2023-02-16T20:31:33.447Z,99.90
2023-02-16T20:34:01.449Z,99.90
2023-02-16T20:36:31.629Z,99.90
2023-02-16T20:38:59.748Z,99.90
2023-02-16T20:41:27.707Z,99.90
2023-02-16T20:43:56.010Z,99.90
2023-02-16T20:46:24.905Z,99.90
2023-02-16T20:48:54.018Z,99.90
2023-02-16T20:51:22.338Z,99.90
2023-02-16T20:53:51.697Z,99.90
2023-02-16T20:56:21.669Z,99.90
2023-02-16T20:58:51.097Z,99.90
2023-02-16T21:01:22.571Z,99.90
2023-02-16T21:03:51.934Z,99.90
2023-02-16T21:06:20.928Z,99.90
2023-02-16T21:08:49.016Z,99.90
2023-02-16T21:11:18.918Z,99.90
2023-02-16T21:13:47.409Z,99.90
2023-02-16T21:16:15.602Z,99.90
2023-02-16T21:18:43.751Z,99.90
2023-02-16T21:21:15.637Z,99.90
2023-02-16T21:23:44.285Z,99.90
2023-02-16T21:26:12.790Z,99.90
2023-02-16T21:28:41.987Z,99.90
2023-02-16T21:31:12.958Z,99.90
2023-02-16T21:33:41.329Z,99.90
2023-02-16T21:36:10.865Z,99.90
2023-02-16T21:38:40.161Z,99.90
2023-02-16T21:41:24.459Z,99.90
2023-02-16T21:43:59.288Z,99.90
2023-02-16T21:46:28.073Z,99.90
2023-02-16T21:48:57.301Z,99.90
2023-02-16T21:51:28.226Z,99.90
2023-02-16T21:53:56.860Z,99.90
2023-02-16T21:56:32.450Z,99.90
2023-02-16T21:59:02.327Z,99.90
2023-02-16T22:01:32.159Z,99.90
2023-02-16T22:04:01.443Z,99.90
2023-02-16T22:06:33.186Z,99.90
2023-02-16T22:09:01.665Z,99.90
2023-02-16T22:11:29.548Z,99.90
2023-02-16T22:13:59.066Z,99.90
2023-02-16T22:16:30.510Z,99.90
2023-02-16T22:18:59.172Z,99.90
2023-02-16T22:21:27.945Z,99.90
2023-02-16T22:23:56.213Z,99.90
2023-02-16T22:26:27.278Z,99.90
2023-02-16T22:28:56.431Z,99.90
2023-02-16T22:31:26.559Z,99.90
2023-02-16T22:34:00.132Z,99.90
2023-02-16T22:36:28.489Z,99.90
2023-02-16T22:38:56.582Z,99.90
2023-02-16T22:41:24.969Z,99.90
2023-02-16T22:43:54.383Z,99.90
2023-02-16T22:46:24.209Z,99.90
2023-02-16T22:48:52.550Z,99.90
2023-02-16T22:51:22.823Z,99.90
2023-02-16T22:53:50.669Z,99.90
2023-02-16T22:56:21.348Z,99.90
2023-02-16T22:58:49.689Z,99.90
2023-02-16T23:01:20.034Z,99.90
2023-02-16T23:03:48.926Z,99.90
2023-02-16T23:06:18.815Z,99.90
2023-02-16T23:08:52.615Z,99.90
2023-02-16T23:11:20.566Z,99.90
2023-02-16T23:13:48.474Z,99.90
2023-02-16T23:16:18.919Z,99.90
2023-02-16T23:18:47.511Z,99.90
2023-02-16T23:21:18.433Z,99.90
2023-02-16T23:23:49.332Z,99.90
2023-02-16T23:26:17.842Z,99.90
2023-02-16T23:28:45.817Z,99.90
2023-02-16T23:31:13.941Z,99.90
2023-02-16T23:33:42.350Z,99.90
2023-02-16T23:36:10.998Z,99.90
2023-02-16T23:38:39.043Z,99.90
2023-02-16T23:41:10.322Z,99.90
2023-02-16T23:43:38.700Z,99.90
2023-02-16T23:46:07.393Z,99.90
2023-02-16T23:48:35.565Z,99.90
2023-02-16T23:51:03.863Z,99.90
2023-02-16T23:53:31.762Z,99.90
2023-02-16T23:56:00.015Z,99.90
2023-02-16T23:58:30.693Z,99.90
